createdAt,value
2023-02-22T00:00:36.913Z,1.30
2023-02-22T00:03:39.374Z,1.13
2023-02-22T00:06:41.301Z,1.37
2023-02-22T00:09:43.388Z,1.40
2023-02-22T00:12:45.428Z,1.97
2023-02-22T00:15:47.438Z,2.07
2023-02-22T00:18:51.146Z,1.50
2023-02-22T00:21:53.632Z,3.60
2023-02-22T00:24:57.683Z,1.00
2023-02-22T00:28:00.650Z,0.70
2023-02-22T00:31:03.491Z,3.27
2023-02-22T00:34:05.808Z,2.10
2023-02-22T00:37:08.016Z,1.03
2023-02-22T00:40:11.784Z,1.00
2023-02-22T00:43:15.469Z,0.60
2023-02-22T00:46:17.723Z,0.80
2023-02-22T00:49:20.128Z,1.70
2023-02-22T00:52:22.204Z,2.70
2023-02-22T00:55:27.612Z,1.93
2023-02-22T00:58:29.703Z,1.47
2023-02-22T01:01:32.511Z,3.20
2023-02-22T01:04:34.726Z,5.30
2023-02-22T01:07:37.496Z,3.30
2023-02-22T01:10:40.391Z,2.13
2023-02-22T01:13:43.200Z,0.70
2023-02-22T01:16:45.123Z,0.57
2023-02-22T01:19:47.050Z,0.50
2023-02-22T01:22:50.727Z,1.47
2023-02-22T01:25:52.663Z,1.70
2023-02-22T01:28:54.663Z,2.27
2023-02-22T01:31:57.257Z,2.50
2023-02-22T01:34:59.670Z,3.33
2023-02-22T01:38:01.808Z,2.67
2023-02-22T01:41:05.154Z,2.40
2023-02-22T01:44:31.940Z,1.80
2023-02-22T01:47:34.883Z,1.10
2023-02-22T01:51:12.351Z,0.90
2023-02-22T01:54:21.710Z,0.70
2023-02-22T01:57:25.496Z,0.60
2023-02-22T02:00:27.916Z,0.60
2023-02-22T02:03:31.635Z,0.97
2023-02-22T02:06:35.132Z,0.40
2023-02-22T02:09:49.035Z,1.10
2023-02-22T02:12:51.575Z,0.70
2023-02-22T02:15:55.779Z,0.40
2023-02-22T02:18:57.780Z,0.30
2023-02-22T02:22:17.477Z,0.47
2023-02-22T02:25:47.109Z,0.47
2023-02-22T02:29:12.202Z,0.50
2023-02-22T02:32:40.145Z,0.50
2023-02-22T02:36:09.536Z,0.40
2023-02-22T02:39:23.546Z,0.50
2023-02-22T02:42:33.674Z,0.50
2023-02-22T02:45:46.180Z,0.50
2023-02-22T02:48:55.066Z,0.70
2023-02-22T02:51:59.140Z,0.40
2023-02-22T02:55:04.206Z,0.60
2023-02-22T02:58:07.208Z,0.60
2023-02-22T03:01:10.394Z,0.57
2023-02-22T03:04:23.132Z,0.60
2023-02-22T03:07:39.459Z,0.50
2023-02-22T03:10:56.185Z,0.60
2023-02-22T03:14:27.609Z,0.50
2023-02-22T03:17:41.719Z,0.43
2023-02-22T03:21:17.401Z,0.53
2023-02-22T03:24:22.717Z,0.60
2023-02-22T03:27:44.411Z,0.60
2023-02-22T03:30:51.919Z,0.60
2023-02-22T03:34:15.669Z,0.63
2023-02-22T03:37:22.265Z,0.50
2023-02-22T03:40:35.777Z,0.50
2023-02-22T03:43:45.007Z,0.40
2023-02-22T03:46:49.295Z,0.40
2023-02-22T03:50:00.199Z,0.50
2023-02-22T03:53:02.685Z,0.50
2023-02-22T03:56:07.864Z,0.50
2023-02-22T03:59:10.501Z,0.50
2023-02-22T04:02:12.929Z,0.40
2023-02-22T04:05:15.476Z,0.47
2023-02-22T04:08:17.666Z,0.40
2023-02-22T04:11:20.081Z,0.50
2023-02-22T04:14:23.803Z,0.57
2023-02-22T04:17:25.912Z,0.50
2023-02-22T04:20:28.196Z,0.40
2023-02-22T04:23:30.168Z,0.50
2023-02-22T04:26:32.130Z,0.40
2023-02-22T04:29:34.073Z,0.60
2023-02-22T04:32:36.686Z,0.40
2023-02-22T04:35:38.953Z,0.53
2023-02-22T04:38:41.247Z,0.43
2023-02-22T04:41:43.101Z,0.53
2023-02-22T04:44:45.296Z,0.47
2023-02-22T04:47:47.503Z,0.30
2023-02-22T04:50:51.554Z,0.30
2023-02-22T04:53:53.462Z,0.43
2023-02-22T04:56:55.588Z,0.40
2023-02-22T04:59:57.628Z,0.47
2023-02-22T05:02:59.853Z,0.40
2023-02-22T05:06:01.812Z,0.30
2023-02-22T05:09:05.003Z,0.40
2023-02-22T05:12:07.204Z,0.40
2023-02-22T05:15:10.047Z,0.40
2023-02-22T05:18:11.957Z,0.40
2023-02-22T05:21:14.071Z,0.40
2023-02-22T05:24:17.035Z,0.60
2023-02-22T05:27:20.365Z,0.50
2023-02-22T05:30:24.863Z,0.30
2023-02-22T05:33:26.850Z,0.50
2023-02-22T05:36:28.774Z,0.43
2023-02-22T05:39:31.163Z,0.47
2023-02-22T05:42:33.043Z,0.30
2023-02-22T05:45:36.559Z,0.30
2023-02-22T05:48:38.419Z,0.43
2023-02-22T05:51:40.473Z,0.43
2023-02-22T05:54:42.378Z,0.50
2023-02-22T05:57:45.222Z,0.60
2023-02-22T06:00:47.117Z,0.80
2023-02-22T06:03:52.390Z,0.70
2023-02-22T06:06:54.716Z,0.80
2023-02-22T06:09:57.270Z,0.50
2023-02-22T06:13:00.240Z,1.90
2023-02-22T06:16:03.142Z,0.47
2023-02-22T06:19:05.268Z,0.47
2023-02-22T06:22:07.665Z,0.60
2023-02-22T06:25:10.596Z,0.30
2023-02-22T06:28:13.096Z,0.63
2023-02-22T06:31:16.101Z,0.40
2023-02-22T06:34:19.277Z,0.47
2023-02-22T06:37:21.640Z,0.70
2023-02-22T06:40:24.384Z,0.70
2023-02-22T06:43:26.353Z,0.50
2023-02-22T06:46:28.676Z,0.83
2023-02-22T06:49:30.586Z,0.70
2023-02-22T06:52:32.541Z,0.80
2023-02-22T06:55:35.300Z,0.50
2023-02-22T06:58:37.162Z,0.60
2023-02-22T07:01:42.900Z,0.67
2023-02-22T07:04:45.875Z,0.90
2023-02-22T07:07:49.380Z,0.57
2023-02-22T07:10:53.401Z,0.67
2023-02-22T07:13:55.723Z,1.00
2023-02-22T07:16:58.588Z,0.70
2023-02-22T07:20:00.494Z,1.73
2023-02-22T07:23:03.265Z,1.30
2023-02-22T07:26:06.785Z,0.80
2023-02-22T07:29:08.995Z,0.70
2023-02-22T07:32:11.081Z,0.40
2023-02-22T07:35:21.509Z,0.90
2023-02-22T07:38:23.360Z,0.90
2023-02-22T07:41:26.045Z,1.73
2023-02-22T07:44:27.959Z,1.53
2023-02-22T07:47:30.229Z,1.37
2023-02-22T07:50:33.542Z,1.33
2023-02-22T07:53:36.049Z,1.20
2023-02-22T07:56:38.013Z,1.40
2023-02-22T07:59:40.385Z,2.23
2023-02-22T08:02:44.002Z,0.87
2023-02-22T08:05:48.701Z,0.60
2023-02-22T08:08:50.615Z,0.73
2023-02-22T08:11:52.533Z,0.77
2023-02-22T08:14:54.458Z,0.90
2023-02-22T08:17:57.887Z,1.10
2023-02-22T08:20:59.851Z,1.10
2023-02-22T08:24:02.271Z,0.90
2023-02-22T08:27:04.671Z,0.60
2023-02-22T08:30:08.343Z,0.70
2023-02-22T08:33:14.645Z,0.63
2023-02-22T08:36:18.869Z,0.57
2023-02-22T08:39:21.532Z,0.80
2023-02-22T08:42:24.193Z,0.50
2023-02-22T08:45:26.184Z,0.73
2023-02-22T08:48:28.241Z,0.67
2023-02-22T08:51:30.718Z,0.60
2023-02-22T08:54:33.365Z,0.60
2023-02-22T08:57:35.314Z,0.50
2023-02-22T09:00:39.120Z,0.40
2023-02-22T09:03:41.099Z,1.33
2023-02-22T09:06:44.705Z,0.60
2023-02-22T09:09:46.599Z,0.50
2023-02-22T09:12:49.303Z,0.70
2023-02-22T09:15:51.179Z,0.80
2023-02-22T09:18:53.080Z,0.70
2023-02-22T09:22:00.208Z,0.90
2023-02-22T09:25:11.414Z,0.80
2023-02-22T09:28:18.760Z,0.80
2023-02-22T09:31:24.571Z,0.70
2023-02-22T09:34:35.528Z,0.93
2023-02-22T09:37:37.846Z,0.73
2023-02-22T09:40:52.925Z,0.90
2023-02-22T09:44:15.756Z,0.80
2023-02-22T09:47:21.204Z,0.90
2023-02-22T09:50:25.956Z,1.27
2023-02-22T09:53:36.361Z,1.00
2023-02-22T09:56:40.198Z,0.83
2023-02-22T09:59:53.179Z,1.00
2023-02-22T10:03:21.063Z,0.83
2023-02-22T10:06:25.074Z,1.13
2023-02-22T10:09:29.598Z,0.60
2023-02-22T10:13:09.824Z,0.80
2023-02-22T10:16:26.728Z,0.60
2023-02-22T10:19:54.882Z,0.90
2023-02-22T10:23:23.003Z,0.90
2023-02-22T10:26:28.675Z,0.80
2023-02-22T10:29:40.431Z,1.00
2023-02-22T10:32:46.068Z,0.87
2023-02-22T10:35:49.006Z,0.70
2023-02-22T10:39:00.870Z,0.63
2023-02-22T10:42:08.801Z,0.73
2023-02-22T10:45:32.915Z,0.97
2023-02-22T10:48:38.287Z,0.73
2023-02-22T10:51:40.471Z,0.80
2023-02-22T10:54:46.083Z,1.03
2023-02-22T10:57:50.299Z,0.70
2023-02-22T11:00:52.908Z,0.67
2023-02-22T11:04:11.096Z,0.73
2023-02-22T11:07:29.292Z,0.70
2023-02-22T11:10:32.226Z,0.70
2023-02-22T11:13:38.884Z,0.60
2023-02-22T11:16:43.910Z,0.80
2023-02-22T11:19:48.314Z,0.70
2023-02-22T11:23:01.545Z,0.40
2023-02-22T11:26:19.367Z,0.43
2023-02-22T11:29:26.831Z,0.90
2023-02-22T11:32:28.878Z,1.00
2023-02-22T11:35:40.742Z,0.67
2023-02-22T11:38:55.462Z,0.73
2023-02-22T11:41:57.629Z,0.70
2023-02-22T11:45:13.529Z,0.80
2023-02-22T11:48:21.138Z,0.60
2023-02-22T11:51:54.216Z,0.70
2023-02-22T11:55:42.715Z,0.80
2023-02-22T11:59:04.571Z,0.70
2023-02-22T12:02:41.634Z,0.60
2023-02-22T12:06:09.463Z,0.50
2023-02-22T12:09:18.816Z,0.60
2023-02-22T12:12:41.234Z,1.00
2023-02-22T12:16:20.877Z,0.50
2023-02-22T12:19:40.066Z,0.53
2023-02-22T12:22:54.482Z,0.80
2023-02-22T12:26:01.670Z,0.60
2023-02-22T12:38:37.455Z,0.90
2023-02-22T12:41:49.871Z,0.60
2023-02-22T12:44:57.822Z,0.70
2023-02-22T12:48:36.261Z,0.63
2023-02-22T12:52:15.896Z,0.60
2023-02-22T12:55:29.510Z,0.53
2023-02-22T12:59:03.535Z,0.43
2023-02-22T13:02:27.944Z,0.50
2023-02-22T13:05:35.637Z,0.80
2023-02-22T13:09:05.770Z,0.50
2023-02-22T13:12:16.779Z,0.60
2023-02-22T13:15:35.874Z,0.50
2023-02-22T13:19:04.804Z,0.70
2023-02-22T13:22:17.398Z,0.47
2023-02-22T13:26:01.320Z,0.70
2023-02-22T13:29:14.575Z,0.70
2023-02-22T13:32:47.946Z,0.40
2023-02-22T13:36:02.515Z,0.70
2023-02-22T13:39:21.578Z,1.10
2023-02-22T13:43:02.392Z,0.70
2023-02-22T13:46:26.107Z,0.77
2023-02-22T13:49:56.173Z,0.70
2023-02-22T13:52:58.638Z,0.87
2023-02-22T13:56:01.337Z,0.90
2023-02-22T13:59:05.270Z,0.90
2023-02-22T14:02:08.225Z,1.20
2023-02-22T14:05:49.972Z,1.00
2023-02-22T14:08:53.379Z,0.90
2023-02-22T14:11:57.082Z,0.73
2023-02-22T14:15:26.469Z,0.70
2023-02-22T14:18:36.339Z,1.30
2023-02-22T14:22:04.531Z,1.00
2023-02-22T14:25:06.624Z,0.73
2023-02-22T14:28:31.438Z,1.20
2023-02-22T14:31:56.586Z,0.90
2023-02-22T14:35:00.974Z,0.70
2023-02-22T14:38:03.415Z,0.90
2023-02-22T14:41:06.438Z,1.07
2023-02-22T14:44:12.998Z,0.83
2023-02-22T14:47:54.730Z,1.67
2023-02-22T14:51:20.290Z,0.90
2023-02-22T14:54:29.206Z,0.50
2023-02-22T14:57:55.313Z,1.27
2023-02-22T15:00:57.968Z,1.10
2023-02-22T15:04:27.596Z,0.90
2023-02-22T15:07:31.784Z,1.50
2023-02-22T15:10:48.034Z,2.23
2023-02-22T15:13:51.994Z,2.33
2023-02-22T15:17:00.816Z,1.10
2023-02-22T15:20:09.180Z,0.97
2023-02-22T15:23:11.199Z,0.70
2023-02-22T15:26:26.253Z,0.80
2023-02-22T15:29:39.486Z,0.90
2023-02-22T15:32:56.984Z,1.00
2023-02-22T15:36:03.749Z,1.50
2023-02-22T15:39:08.971Z,1.30
2023-02-22T15:42:21.201Z,1.30
2023-02-22T15:45:25.529Z,1.20
2023-02-22T15:48:29.571Z,1.13
2023-02-22T15:51:33.257Z,1.17
2023-02-22T15:54:42.062Z,1.13
2023-02-22T15:57:44.404Z,1.53
2023-02-22T16:00:50.610Z,1.43
2023-02-22T16:03:55.756Z,1.10
2023-02-22T16:07:17.965Z,1.17
2023-02-22T16:10:30.181Z,1.40
2023-02-22T16:13:35.879Z,1.30
2023-02-22T16:16:41.942Z,1.57
2023-02-22T16:19:45.279Z,1.60
2023-02-22T16:22:51.905Z,1.13
2023-02-22T16:26:06.126Z,1.30
2023-02-22T16:29:09.382Z,1.10
2023-02-22T16:32:12.304Z,1.90
2023-02-22T16:35:18.255Z,2.13
2023-02-22T16:38:21.564Z,1.30
2023-02-22T16:41:23.505Z,1.60
2023-02-22T16:44:26.235Z,1.47
2023-02-22T16:47:28.119Z,1.40
2023-02-22T16:50:30.164Z,1.57
2023-02-22T16:53:32.756Z,1.43
2023-02-22T16:56:35.906Z,1.23
2023-02-22T16:59:39.741Z,1.10
2023-02-22T17:02:42.538Z,1.10
2023-02-22T17:05:44.641Z,1.40
2023-02-22T17:08:46.725Z,1.00
2023-02-22T17:11:50.827Z,1.17
2023-02-22T17:14:53.193Z,1.03
2023-02-22T17:17:57.560Z,1.20
2023-02-22T17:21:00.506Z,1.20
2023-02-22T17:24:02.329Z,1.40
2023-02-22T17:27:04.303Z,1.10
2023-02-22T17:30:07.358Z,1.10
2023-02-22T17:33:10.349Z,1.43
2023-02-22T17:36:13.443Z,1.03
2023-02-22T17:39:17.792Z,1.40
2023-02-22T17:42:19.813Z,0.97
2023-02-22T17:45:24.287Z,1.30
2023-02-22T17:48:26.842Z,1.30
2023-02-22T17:51:29.178Z,1.47
2023-02-22T17:54:31.637Z,1.20
2023-02-22T17:57:34.910Z,1.30
2023-02-22T18:00:38.813Z,1.10
2023-02-22T18:03:41.025Z,1.00
2023-02-22T18:06:44.496Z,1.13
2023-02-22T18:09:47.607Z,1.00
2023-02-22T18:12:49.759Z,1.03
2023-02-22T18:15:54.488Z,1.10
2023-02-22T18:18:56.953Z,0.90
2023-02-22T18:22:03.294Z,0.97
2023-02-22T18:25:06.029Z,1.27
2023-02-22T18:28:09.299Z,1.20
2023-02-22T18:31:14.937Z,1.63
2023-02-22T18:34:17.881Z,1.70
2023-02-22T18:37:20.687Z,1.80
2023-02-22T18:40:24.408Z,1.70
2023-02-22T18:43:27.394Z,1.67
2023-02-22T18:46:31.154Z,1.37
2023-02-22T18:49:33.144Z,1.70
2023-02-22T18:52:45.275Z,1.80
2023-02-22T18:55:47.377Z,2.90
2023-02-22T18:58:57.249Z,3.00
2023-02-22T19:01:59.162Z,2.10
2023-02-22T19:05:01.650Z,1.80
2023-02-22T19:08:04.488Z,2.10
2023-02-22T19:11:10.527Z,2.03
2023-02-22T19:14:14.691Z,1.97
2023-02-22T19:17:16.733Z,1.77
2023-02-22T19:20:19.548Z,1.80
2023-02-22T19:23:21.659Z,1.83
2023-02-22T19:26:27.007Z,1.60
2023-02-22T19:29:31.889Z,1.40
2023-02-22T19:32:33.909Z,1.50
2023-02-22T19:35:37.105Z,1.80
2023-02-22T19:38:39.595Z,1.80
2023-02-22T19:41:46.288Z,1.80
2023-02-22T19:44:49.216Z,1.80
2023-02-22T19:47:56.172Z,1.70
2023-02-22T19:51:06.610Z,1.30
2023-02-22T19:54:14.853Z,1.30
2023-02-22T19:57:16.788Z,1.50
2023-02-22T20:00:25.183Z,1.33
2023-02-22T20:03:28.375Z,1.50
2023-02-22T20:06:35.132Z,1.40
2023-02-22T20:09:39.598Z,1.93
2023-02-22T20:12:46.618Z,1.80
2023-02-22T20:15:51.113Z,2.07
2023-02-22T20:18:59.470Z,2.10
2023-02-22T20:22:02.968Z,2.27
2023-02-22T20:25:10.269Z,3.10
2023-02-22T20:28:16.534Z,2.30
2023-02-22T20:31:21.167Z,2.20
2023-02-22T20:34:25.976Z,2.40
2023-02-22T20:37:28.072Z,1.93
2023-02-22T20:40:30.307Z,2.17
2023-02-22T20:43:32.638Z,1.57
2023-02-22T20:46:37.572Z,2.37
2023-02-22T20:49:39.950Z,2.40
2023-02-22T20:52:42.189Z,1.90
2023-02-22T20:55:54.194Z,2.30
2023-02-22T20:59:00.127Z,1.67
2023-02-22T21:02:02.035Z,2.20
2023-02-22T21:05:06.244Z,2.17
2023-02-22T21:08:08.491Z,1.73
2023-02-22T21:11:15.368Z,2.23
2023-02-22T21:14:21.216Z,2.00
2023-02-22T21:17:29.208Z,1.70
2023-02-22T21:20:31.450Z,2.00
2023-02-22T21:23:34.237Z,1.73
2023-02-22T21:26:36.305Z,1.40
2023-02-22T21:29:39.123Z,1.93
2023-02-22T21:32:42.188Z,1.50
2023-02-22T21:35:48.174Z,1.80
2023-02-22T21:38:54.039Z,1.70
2023-02-22T21:42:00.861Z,1.67
2023-02-22T21:45:04.547Z,1.80
2023-02-22T21:48:06.555Z,1.50
2023-02-22T21:51:15.975Z,1.63
2023-02-22T21:54:18.835Z,1.53
2023-02-22T21:57:20.665Z,1.57
2023-02-22T22:00:29.559Z,1.30
2023-02-22T22:03:31.560Z,1.20
2023-02-22T22:06:35.408Z,1.57
2023-02-22T22:09:42.992Z,1.07
2023-02-22T22:12:50.837Z,1.53
2023-02-22T22:16:04.619Z,1.30
2023-02-22T22:19:11.381Z,1.00
2023-02-22T22:22:17.260Z,1.30
2023-02-22T22:25:19.359Z,1.33
2023-02-22T22:28:21.697Z,1.33
2023-02-22T22:31:26.893Z,1.10
2023-02-22T22:34:29.856Z,1.50
2023-02-22T22:37:31.761Z,1.33
2023-02-22T22:40:34.695Z,1.20
2023-02-22T22:43:37.802Z,1.30
2023-02-22T22:46:41.170Z,1.57
2023-02-22T22:49:43.300Z,1.30
2023-02-22T22:52:46.351Z,1.47
2023-02-22T22:55:48.350Z,1.20
2023-02-22T22:58:58.493Z,1.00
2023-02-22T23:02:03.498Z,1.33
2023-02-22T23:05:05.896Z,1.10
2023-02-22T23:08:10.974Z,1.30
2023-02-22T23:11:13.371Z,1.17
2023-02-22T23:14:21.228Z,1.17
2023-02-22T23:17:41.224Z,1.37
2023-02-22T23:20:43.246Z,1.30
2023-02-22T23:23:45.573Z,1.23
2023-02-22T23:26:51.760Z,1.27
2023-02-22T23:29:53.633Z,1.40
2023-02-22T23:32:57.426Z,1.33
2023-02-22T23:35:59.226Z,1.30
2023-02-22T23:39:01.174Z,1.50
2023-02-22T23:42:05.289Z,1.40
2023-02-22T23:45:07.746Z,1.70
2023-02-22T23:48:09.654Z,1.60
2023-02-22T23:51:12.112Z,1.40
2023-02-22T23:54:19.632Z,1.53
2023-02-22T23:57:22.142Z,1.47
